sensor_id;sensor_type;location;lat;lon;timestamp;P1;durP1;ratioP1;P2;durP2;ratioP2
52534;SDS011;38443;53.164;5.802;2023-02-04T00:00:53;20.90;;;6.95;;
52534;SDS011;38443;53.164;5.802;2023-02-04T00:05:43;23.52;;;5.78;;
52534;SDS011;38443;53.164;5.802;2023-02-04T00:10:35;36.88;;;8.18;;
52534;SDS011;38443;53.164;5.802;2023-02-04T00:13:01;35.38;;;6.20;;
52534;SDS011;38443;53.164;5.802;2023-02-04T00:15:27;33.85;;;7.80;;
52534;SDS011;38443;53.164;5.802;2023-02-04T00:20:18;27.23;;;6.80;;
52534;SDS011;38443;53.164;5.802;2023-02-04T00:25:09;31.75;;;7.15;;
52534;SDS011;38443;53.164;5.802;2023-02-04T00:30:00;32.33;;;7.63;;
52534;SDS011;38443;53.164;5.802;2023-02-04T00:34:50;36.50;;;7.80;;
52534;SDS011;38443;53.164;5.802;2023-02-04T00:37:17;25.80;;;7.32;;
52534;SDS011;38443;53.164;5.802;2023-02-04T00:42:08;36.95;;;7.45;;
52534;SDS011;38443;53.164;5.802;2023-02-04T00:47:00;27.08;;;6.50;;
52534;SDS011;38443;53.164;5.802;2023-02-04T00:51:51;29.85;;;7.47;;
52534;SDS011;38443;53.164;5.802;2023-02-04T00:56:42;30.90;;;7.22;;
52534;SDS011;38443;53.164;5.802;2023-02-04T01:01:33;30.85;;;7.43;;
52534;SDS011;38443;53.164;5.802;2023-02-04T01:06:24;44.33;;;7.60;;
52534;SDS011;38443;53.164;5.802;2023-02-04T01:11:15;30.45;;;7.82;;
52534;SDS011;38443;53.164;5.802;2023-02-04T01:16:06;28.13;;;7.20;;
52534;SDS011;38443;53.164;5.802;2023-02-04T01:20:56;28.77;;;8.18;;
52534;SDS011;38443;53.164;5.802;2023-02-04T01:25:47;27.70;;;7.05;;
52534;SDS011;38443;53.164;5.802;2023-02-04T01:30:37;38.88;;;10.38;;
52534;SDS011;38443;53.164;5.802;2023-02-04T01:35:28;33.60;;;8.40;;
52534;SDS011;38443;53.164;5.802;2023-02-04T01:40:19;29.98;;;7.93;;
52534;SDS011;38443;53.164;5.802;2023-02-04T01:45:09;32.25;;;7.38;;
52534;SDS011;38443;53.164;5.802;2023-02-04T01:50:01;26.10;;;8.32;;
52534;SDS011;38443;53.164;5.802;2023-02-04T01:54:55;37.05;;;7.63;;
52534;SDS011;38443;53.164;5.802;2023-02-04T01:59:46;27.10;;;7.03;;
52534;SDS011;38443;53.164;5.802;2023-02-04T02:05:17;33.10;;;8.43;;
52534;SDS011;38443;53.164;5.802;2023-02-04T02:07:53;39.60;;;7.82;;
52534;SDS011;38443;53.164;5.802;2023-02-04T02:10:21;27.33;;;6.30;;
52534;SDS011;38443;53.164;5.802;2023-02-04T02:12:47;33.53;;;7.15;;
52534;SDS011;38443;53.164;5.802;2023-02-04T02:17:39;33.97;;;7.75;;
52534;SDS011;38443;53.164;5.802;2023-02-04T02:22:51;28.10;;;7.25;;
52534;SDS011;38443;53.164;5.802;2023-02-04T02:25:29;25.30;;;6.53;;
52534;SDS011;38443;53.164;5.802;2023-02-04T02:30:21;33.20;;;7.55;;
52534;SDS011;38443;53.164;5.802;2023-02-04T02:35:13;34.47;;;7.88;;
52534;SDS011;38443;53.164;5.802;2023-02-04T02:37:39;26.30;;;6.57;;
52534;SDS011;38443;53.164;5.802;2023-02-04T02:42:30;50.75;;;9.13;;
52534;SDS011;38443;53.164;5.802;2023-02-04T02:47:22;31.95;;;7.57;;
52534;SDS011;38443;53.164;5.802;2023-02-04T02:49:49;31.88;;;7.65;;
52534;SDS011;38443;53.164;5.802;2023-02-04T02:52:16;36.20;;;7.32;;
52534;SDS011;38443;53.164;5.802;2023-02-04T02:57:15;32.88;;;7.80;;
52534;SDS011;38443;53.164;5.802;2023-02-04T02:59:44;24.85;;;6.45;;
52534;SDS011;38443;53.164;5.802;2023-02-04T03:04:37;23.40;;;6.30;;
52534;SDS011;38443;53.164;5.802;2023-02-04T03:07:06;25.55;;;6.55;;
52534;SDS011;38443;53.164;5.802;2023-02-04T03:09:33;30.58;;;7.40;;
52534;SDS011;38443;53.164;5.802;2023-02-04T03:11:59;31.25;;;6.90;;
52534;SDS011;38443;53.164;5.802;2023-02-04T03:16:50;33.53;;;7.25;;
52534;SDS011;38443;53.164;5.802;2023-02-04T03:19:17;28.75;;;7.20;;
52534;SDS011;38443;53.164;5.802;2023-02-04T03:24:08;28.15;;;7.45;;
52534;SDS011;38443;53.164;5.802;2023-02-04T03:28:59;33.00;;;7.50;;
52534;SDS011;38443;53.164;5.802;2023-02-04T03:33:49;28.23;;;9.05;;
52534;SDS011;38443;53.164;5.802;2023-02-04T03:38:40;25.10;;;7.88;;
52534;SDS011;38443;53.164;5.802;2023-02-04T03:43:31;31.33;;;6.90;;
52534;SDS011;38443;53.164;5.802;2023-02-04T03:48:21;28.83;;;6.85;;
52534;SDS011;38443;53.164;5.802;2023-02-04T03:53:12;33.47;;;7.78;;
52534;SDS011;38443;53.164;5.802;2023-02-04T03:58:03;33.53;;;7.43;;
52534;SDS011;38443;53.164;5.802;2023-02-04T04:02:56;34.17;;;7.10;;
52534;SDS011;38443;53.164;5.802;2023-02-04T04:07:47;32.25;;;8.07;;
52534;SDS011;38443;53.164;5.802;2023-02-04T04:12:37;31.98;;;7.32;;
52534;SDS011;38443;53.164;5.802;2023-02-04T04:17:28;31.90;;;7.82;;
52534;SDS011;38443;53.164;5.802;2023-02-04T04:22:19;27.98;;;6.05;;
52534;SDS011;38443;53.164;5.802;2023-02-04T04:27:09;32.03;;;9.15;;
52534;SDS011;38443;53.164;5.802;2023-02-04T04:32:00;33.42;;;6.80;;
52534;SDS011;38443;53.164;5.802;2023-02-04T04:36:50;24.75;;;7.43;;
52534;SDS011;38443;53.164;5.802;2023-02-04T04:41:41;33.67;;;7.73;;
52534;SDS011;38443;53.164;5.802;2023-02-04T04:46:32;39.10;;;6.75;;
52534;SDS011;38443;53.164;5.802;2023-02-04T04:51:23;35.83;;;6.68;;
52534;SDS011;38443;53.164;5.802;2023-02-04T04:56:13;25.98;;;6.68;;
52534;SDS011;38443;53.164;5.802;2023-02-04T05:01:04;36.58;;;7.00;;
52534;SDS011;38443;53.164;5.802;2023-02-04T05:05:54;34.03;;;9.10;;
52534;SDS011;38443;53.164;5.802;2023-02-04T05:10:45;35.15;;;6.20;;
52534;SDS011;38443;53.164;5.802;2023-02-04T05:15:36;37.78;;;7.88;;
52534;SDS011;38443;53.164;5.802;2023-02-04T05:20:27;30.75;;;7.43;;
52534;SDS011;38443;53.164;5.802;2023-02-04T05:25:19;36.88;;;8.88;;
52534;SDS011;38443;53.164;5.802;2023-02-04T05:30:11;27.63;;;7.00;;
52534;SDS011;38443;53.164;5.802;2023-02-04T05:32:37;18.08;;;6.05;;
52534;SDS011;38443;53.164;5.802;2023-02-04T05:37:28;34.97;;;7.13;;
52534;SDS011;38443;53.164;5.802;2023-02-04T05:42:19;45.50;;;9.77;;
52534;SDS011;38443;53.164;5.802;2023-02-04T05:47:09;38.20;;;7.82;;
52534;SDS011;38443;53.164;5.802;2023-02-04T05:52:00;23.25;;;6.97;;
52534;SDS011;38443;53.164;5.802;2023-02-04T05:56:51;29.13;;;6.68;;
52534;SDS011;38443;53.164;5.802;2023-02-04T06:01:42;30.85;;;7.53;;
52534;SDS011;38443;53.164;5.802;2023-02-04T06:06:32;30.50;;;6.05;;
52534;SDS011;38443;53.164;5.802;2023-02-04T06:11:23;30.90;;;6.72;;
52534;SDS011;38443;53.164;5.802;2023-02-04T06:16:14;29.10;;;7.00;;
52534;SDS011;38443;53.164;5.802;2023-02-04T06:21:04;28.92;;;7.43;;
52534;SDS011;38443;53.164;5.802;2023-02-04T06:25:58;31.08;;;7.03;;
52534;SDS011;38443;53.164;5.802;2023-02-04T06:30:49;34.50;;;8.93;;
52534;SDS011;38443;53.164;5.802;2023-02-04T06:35:39;31.73;;;7.85;;
52534;SDS011;38443;53.164;5.802;2023-02-04T06:40:30;38.15;;;8.48;;
52534;SDS011;38443;53.164;5.802;2023-02-04T06:45:20;28.75;;;7.20;;
52534;SDS011;38443;53.164;5.802;2023-02-04T06:50:11;46.83;;;9.98;;
52534;SDS011;38443;53.164;5.802;2023-02-04T06:55:02;27.85;;;8.45;;
52534;SDS011;38443;53.164;5.802;2023-02-04T06:59:53;41.30;;;7.90;;
52534;SDS011;38443;53.164;5.802;2023-02-04T07:04:43;34.78;;;7.60;;
52534;SDS011;38443;53.164;5.802;2023-02-04T07:09:35;35.50;;;7.32;;
52534;SDS011;38443;53.164;5.802;2023-02-04T07:14:26;37.03;;;8.55;;
52534;SDS011;38443;53.164;5.802;2023-02-04T07:19:17;42.22;;;7.43;;
52534;SDS011;38443;53.164;5.802;2023-02-04T07:24:07;30.98;;;7.72;;
52534;SDS011;38443;53.164;5.802;2023-02-04T07:28:58;26.20;;;6.75;;
52534;SDS011;38443;53.164;5.802;2023-02-04T07:33:49;30.95;;;7.72;;
52534;SDS011;38443;53.164;5.802;2023-02-04T07:38:39;30.95;;;6.82;;
52534;SDS011;38443;53.164;5.802;2023-02-04T07:43:30;23.38;;;6.95;;
52534;SDS011;38443;53.164;5.802;2023-02-04T07:48:20;37.10;;;7.90;;
52534;SDS011;38443;53.164;5.802;2023-02-04T07:53:11;21.08;;;6.45;;
52534;SDS011;38443;53.164;5.802;2023-02-04T07:58:02;27.95;;;9.13;;
52534;SDS011;38443;53.164;5.802;2023-02-04T08:02:53;23.75;;;8.25;;
52534;SDS011;38443;53.164;5.802;2023-02-04T08:07:43;34.80;;;9.32;;
52534;SDS011;38443;53.164;5.802;2023-02-04T08:12:35;32.85;;;9.10;;
52534;SDS011;38443;53.164;5.802;2023-02-04T08:17:26;31.25;;;11.45;;
52534;SDS011;38443;53.164;5.802;2023-02-04T08:22:17;35.67;;;9.65;;
52534;SDS011;38443;53.164;5.802;2023-02-04T08:27:08;26.00;;;7.00;;
52534;SDS011;38443;53.164;5.802;2023-02-04T08:31:59;31.48;;;5.85;;
52534;SDS011;38443;53.164;5.802;2023-02-04T08:36:49;21.38;;;5.38;;
52534;SDS011;38443;53.164;5.802;2023-02-04T08:41:40;14.60;;;5.22;;
52534;SDS011;38443;53.164;5.802;2023-02-04T08:46:31;22.45;;;5.78;;
52534;SDS011;38443;53.164;5.802;2023-02-04T08:51:22;18.00;;;5.13;;
52534;SDS011;38443;53.164;5.802;2023-02-04T08:56:12;21.42;;;5.45;;
52534;SDS011;38443;53.164;5.802;2023-02-04T08:58:42;15.73;;;4.40;;
52534;SDS011;38443;53.164;5.802;2023-02-04T09:01:08;11.75;;;4.13;;
52534;SDS011;38443;53.164;5.802;2023-02-04T09:03:35;15.93;;;4.50;;
52534;SDS011;38443;53.164;5.802;2023-02-04T09:08:26;16.00;;;4.35;;
52534;SDS011;38443;53.164;5.802;2023-02-04T09:13:16;20.25;;;4.57;;
52534;SDS011;38443;53.164;5.802;2023-02-04T09:18:07;11.98;;;4.43;;
52534;SDS011;38443;53.164;5.802;2023-02-04T09:20:38;15.93;;;4.10;;
52534;SDS011;38443;53.164;5.802;2023-02-04T09:25:33;17.38;;;5.25;;
52534;SDS011;38443;53.164;5.802;2023-02-04T09:30:24;14.23;;;4.38;;
52534;SDS011;38443;53.164;5.802;2023-02-04T09:35:15;17.52;;;5.30;;
52534;SDS011;38443;53.164;5.802;2023-02-04T09:40:06;17.43;;;5.77;;
52534;SDS011;38443;53.164;5.802;2023-02-04T09:44:57;20.92;;;5.68;;
52534;SDS011;38443;53.164;5.802;2023-02-04T09:47:24;16.80;;;4.68;;
52534;SDS011;38443;53.164;5.802;2023-02-04T09:49:51;16.92;;;4.40;;
52534;SDS011;38443;53.164;5.802;2023-02-04T09:54:43;14.50;;;4.78;;
52534;SDS011;38443;53.164;5.802;2023-02-04T09:57:15;22.10;;;5.18;;
52534;SDS011;38443;53.164;5.802;2023-02-04T09:59:43;22.13;;;4.78;;
52534;SDS011;38443;53.164;5.802;2023-02-04T10:02:16;16.15;;;4.40;;
52534;SDS011;38443;53.164;5.802;2023-02-04T10:04:46;23.67;;;4.97;;
52534;SDS011;38443;53.164;5.802;2023-02-04T10:09:38;13.23;;;3.95;;
52534;SDS011;38443;53.164;5.802;2023-02-04T10:12:05;15.93;;;3.65;;
52534;SDS011;38443;53.164;5.802;2023-02-04T10:14:31;8.85;;;3.30;;
52534;SDS011;38443;53.164;5.802;2023-02-04T10:19:24;15.80;;;3.58;;
52534;SDS011;38443;53.164;5.802;2023-02-04T10:21:51;11.18;;;4.28;;
52534;SDS011;38443;53.164;5.802;2023-02-04T10:26:46;15.10;;;3.70;;
52534;SDS011;38443;53.164;5.802;2023-02-04T10:31:43;9.98;;;3.45;;
52534;SDS011;38443;53.164;5.802;2023-02-04T10:36:54;13.80;;;4.30;;
52534;SDS011;38443;53.164;5.802;2023-02-04T10:39:28;12.32;;;3.03;;
52534;SDS011;38443;53.164;5.802;2023-02-04T10:41:55;11.73;;;3.22;;
52534;SDS011;38443;53.164;5.802;2023-02-04T10:44:31;11.77;;;3.20;;
52534;SDS011;38443;53.164;5.802;2023-02-04T10:47:00;7.65;;;3.05;;
52534;SDS011;38443;53.164;5.802;2023-02-04T10:49:27;13.95;;;3.25;;
52534;SDS011;38443;53.164;5.802;2023-02-04T10:54:23;12.85;;;3.13;;
52534;SDS011;38443;53.164;5.802;2023-02-04T10:56:58;14.68;;;3.50;;
52534;SDS011;38443;53.164;5.802;2023-02-04T10:59:27;8.73;;;3.28;;
52534;SDS011;38443;53.164;5.802;2023-02-04T11:04:22;9.70;;;3.17;;
52534;SDS011;38443;53.164;5.802;2023-02-04T11:06:49;13.13;;;3.42;;
52534;SDS011;38443;53.164;5.802;2023-02-04T11:09:16;8.50;;;3.45;;
52534;SDS011;38443;53.164;5.802;2023-02-04T11:14:21;10.02;;;3.13;;
52534;SDS011;38443;53.164;5.802;2023-02-04T11:16:52;13.68;;;3.17;;
52534;SDS011;38443;53.164;5.802;2023-02-04T11:19:29;10.38;;;2.90;;
52534;SDS011;38443;53.164;5.802;2023-02-04T11:22:06;11.23;;;2.97;;
52534;SDS011;38443;53.164;5.802;2023-02-04T11:24:43;9.50;;;2.83;;
52534;SDS011;38443;53.164;5.802;2023-02-04T11:30:04;12.10;;;3.28;;
52534;SDS011;38443;53.164;5.802;2023-02-04T11:35:07;13.70;;;3.55;;
52534;SDS011;38443;53.164;5.802;2023-02-04T11:37:45;12.90;;;3.30;;
52534;SDS011;38443;53.164;5.802;2023-02-04T11:42:45;11.55;;;3.55;;
52534;SDS011;38443;53.164;5.802;2023-02-04T11:45:12;10.35;;;3.63;;
52534;SDS011;38443;53.164;5.802;2023-02-04T11:47:41;14.02;;;3.92;;
52534;SDS011;38443;53.164;5.802;2023-02-04T11:50:12;14.55;;;2.88;;
52534;SDS011;38443;53.164;5.802;2023-02-04T11:52:43;13.68;;;4.32;;
52534;SDS011;38443;53.164;5.802;2023-02-04T11:57:38;11.60;;;3.40;;
52534;SDS011;38443;53.164;5.802;2023-02-04T12:00:16;16.23;;;3.63;;
52534;SDS011;38443;53.164;5.802;2023-02-04T12:02:47;15.85;;;3.47;;
52534;SDS011;38443;53.164;5.802;2023-02-04T12:05:18;12.18;;;4.05;;
52534;SDS011;38443;53.164;5.802;2023-02-04T12:07:45;11.93;;;4.20;;
52534;SDS011;38443;53.164;5.802;2023-02-04T12:10:22;11.10;;;3.30;;
52534;SDS011;38443;53.164;5.802;2023-02-04T12:12:51;18.83;;;5.10;;
52534;SDS011;38443;53.164;5.802;2023-02-04T12:15:23;11.18;;;3.53;;
52534;SDS011;38443;53.164;5.802;2023-02-04T12:18:07;13.13;;;4.72;;
52534;SDS011;38443;53.164;5.802;2023-02-04T12:20:36;15.52;;;3.55;;
52534;SDS011;38443;53.164;5.802;2023-02-04T12:25:28;11.13;;;3.63;;
52534;SDS011;38443;53.164;5.802;2023-02-04T12:30:22;12.15;;;3.83;;
52534;SDS011;38443;53.164;5.802;2023-02-04T12:32:50;12.32;;;3.58;;
52534;SDS011;38443;53.164;5.802;2023-02-04T12:37:41;15.70;;;3.22;;
52534;SDS011;38443;53.164;5.802;2023-02-04T12:42:31;18.45;;;3.50;;
52534;SDS011;38443;53.164;5.802;2023-02-04T12:47:22;11.65;;;3.35;;
52534;SDS011;38443;53.164;5.802;2023-02-04T12:52:13;15.88;;;5.07;;
52534;SDS011;38443;53.164;5.802;2023-02-04T12:57:04;11.93;;;3.20;;
52534;SDS011;38443;53.164;5.802;2023-02-04T13:01:55;9.77;;;2.63;;
52534;SDS011;38443;53.164;5.802;2023-02-04T13:06:46;7.50;;;3.55;;
52534;SDS011;38443;53.164;5.802;2023-02-04T13:11:37;10.32;;;3.05;;
52534;SDS011;38443;53.164;5.802;2023-02-04T13:16:27;14.38;;;3.38;;
52534;SDS011;38443;53.164;5.802;2023-02-04T13:18:53;9.70;;;3.58;;
52534;SDS011;38443;53.164;5.802;2023-02-04T13:23:43;14.70;;;3.25;;
52534;SDS011;38443;53.164;5.802;2023-02-04T13:26:09;15.43;;;3.97;;
52534;SDS011;38443;53.164;5.802;2023-02-04T13:31:00;13.07;;;3.00;;
52534;SDS011;38443;53.164;5.802;2023-02-04T13:35:51;13.15;;;3.13;;
52534;SDS011;38443;53.164;5.802;2023-02-04T13:38:16;7.70;;;3.03;;
52534;SDS011;38443;53.164;5.802;2023-02-04T13:43:10;10.80;;;3.63;;
52534;SDS011;38443;53.164;5.802;2023-02-04T13:48:01;9.68;;;3.88;;
52534;SDS011;38443;53.164;5.802;2023-02-04T13:52:53;15.30;;;3.97;;
52534;SDS011;38443;53.164;5.802;2023-02-04T13:55:27;9.52;;;3.75;;
52534;SDS011;38443;53.164;5.802;2023-02-04T13:57:53;10.82;;;3.50;;
52534;SDS011;38443;53.164;5.802;2023-02-04T14:02:43;15.52;;;3.70;;
52534;SDS011;38443;53.164;5.802;2023-02-04T14:07:34;18.42;;;3.60;;
52534;SDS011;38443;53.164;5.802;2023-02-04T14:12:25;13.40;;;3.78;;
52534;SDS011;38443;53.164;5.802;2023-02-04T14:17:16;11.50;;;3.13;;
52534;SDS011;38443;53.164;5.802;2023-02-04T14:22:07;10.68;;;4.03;;
52534;SDS011;38443;53.164;5.802;2023-02-04T14:24:35;8.38;;;2.78;;
52534;SDS011;38443;53.164;5.802;2023-02-04T14:29:31;10.32;;;3.47;;
52534;SDS011;38443;53.164;5.802;2023-02-04T14:34:22;11.18;;;3.40;;
52534;SDS011;38443;53.164;5.802;2023-02-04T14:36:48;12.98;;;3.47;;
52534;SDS011;38443;53.164;5.802;2023-02-04T14:41:39;12.25;;;3.85;;
52534;SDS011;38443;53.164;5.802;2023-02-04T14:46:29;12.43;;;4.07;;
52534;SDS011;38443;53.164;5.802;2023-02-04T14:51:20;9.02;;;3.38;;
52534;SDS011;38443;53.164;5.802;2023-02-04T14:53:45;14.07;;;3.53;;
52534;SDS011;38443;53.164;5.802;2023-02-04T14:58:37;15.10;;;2.97;;
52534;SDS011;38443;53.164;5.802;2023-02-04T15:01:02;14.48;;;4.47;;
52534;SDS011;38443;53.164;5.802;2023-02-04T15:05:53;12.88;;;3.75;;
52534;SDS011;38443;53.164;5.802;2023-02-04T15:10:43;9.90;;;3.38;;
52534;SDS011;38443;53.164;5.802;2023-02-04T15:15:35;13.52;;;3.03;;
52534;SDS011;38443;53.164;5.802;2023-02-04T15:20:26;13.73;;;3.42;;
52534;SDS011;38443;53.164;5.802;2023-02-04T15:25:18;11.02;;;3.10;;
52534;SDS011;38443;53.164;5.802;2023-02-04T15:30:09;16.88;;;4.95;;
52534;SDS011;38443;53.164;5.802;2023-02-04T15:35:00;13.00;;;3.47;;
52534;SDS011;38443;53.164;5.802;2023-02-04T15:39:51;16.10;;;3.60;;
52534;SDS011;38443;53.164;5.802;2023-02-04T15:44:41;15.87;;;4.10;;
52534;SDS011;38443;53.164;5.802;2023-02-04T15:49:32;14.20;;;4.03;;
52534;SDS011;38443;53.164;5.802;2023-02-04T15:51:58;14.07;;;3.53;;
52534;SDS011;38443;53.164;5.802;2023-02-04T15:56:49;8.10;;;3.30;;
52534;SDS011;38443;53.164;5.802;2023-02-04T16:01:40;18.70;;;3.73;;
52534;SDS011;38443;53.164;5.802;2023-02-04T16:04:09;11.93;;;2.83;;
52534;SDS011;38443;53.164;5.802;2023-02-04T16:09:00;14.73;;;3.22;;
52534;SDS011;38443;53.164;5.802;2023-02-04T16:13:50;13.63;;;3.20;;
52534;SDS011;38443;53.164;5.802;2023-02-04T16:18:41;8.90;;;3.13;;
52534;SDS011;38443;53.164;5.802;2023-02-04T16:23:32;18.30;;;4.15;;
52534;SDS011;38443;53.164;5.802;2023-02-04T16:28:22;11.63;;;3.50;;
52534;SDS011;38443;53.164;5.802;2023-02-04T16:33:13;10.55;;;3.03;;
52534;SDS011;38443;53.164;5.802;2023-02-04T16:38:21;9.13;;;3.22;;
52534;SDS011;38443;53.164;5.802;2023-02-04T16:43:11;8.50;;;3.58;;
52534;SDS011;38443;53.164;5.802;2023-02-04T16:48:02;11.48;;;4.20;;
52534;SDS011;38443;53.164;5.802;2023-02-04T16:52:53;6.13;;;2.75;;
52534;SDS011;38443;53.164;5.802;2023-02-04T16:57:43;6.95;;;2.95;;
52534;SDS011;38443;53.164;5.802;2023-02-04T17:02:34;11.77;;;3.15;;
52534;SDS011;38443;53.164;5.802;2023-02-04T17:05:01;8.02;;;3.30;;
52534;SDS011;38443;53.164;5.802;2023-02-04T17:07:27;13.98;;;3.95;;
52534;SDS011;38443;53.164;5.802;2023-02-04T17:12:18;13.88;;;3.83;;
52534;SDS011;38443;53.164;5.802;2023-02-04T17:17:08;12.68;;;5.63;;
52534;SDS011;38443;53.164;5.802;2023-02-04T17:19:34;14.15;;;4.13;;
52534;SDS011;38443;53.164;5.802;2023-02-04T17:24:34;11.63;;;4.07;;
52534;SDS011;38443;53.164;5.802;2023-02-04T17:27:06;13.60;;;3.67;;
52534;SDS011;38443;53.164;5.802;2023-02-04T17:31:57;8.73;;;3.53;;
52534;SDS011;38443;53.164;5.802;2023-02-04T17:36:50;15.60;;;4.15;;
52534;SDS011;38443;53.164;5.802;2023-02-04T17:39:34;9.38;;;3.00;;
52534;SDS011;38443;53.164;5.802;2023-02-04T17:44:24;8.97;;;3.57;;
52534;SDS011;38443;53.164;5.802;2023-02-04T17:49:15;13.57;;;4.63;;
52534;SDS011;38443;53.164;5.802;2023-02-04T17:54:05;11.68;;;3.20;;
52534;SDS011;38443;53.164;5.802;2023-02-04T17:58:56;12.38;;;3.20;;
52534;SDS011;38443;53.164;5.802;2023-02-04T18:03:53;17.17;;;3.67;;
52534;SDS011;38443;53.164;5.802;2023-02-04T18:08:46;8.57;;;3.05;;
52534;SDS011;38443;53.164;5.802;2023-02-04T18:11:17;8.88;;;3.38;;
52534;SDS011;38443;53.164;5.802;2023-02-04T18:13:43;10.30;;;3.05;;
52534;SDS011;38443;53.164;5.802;2023-02-04T18:18:53;7.55;;;3.55;;
52534;SDS011;38443;53.164;5.802;2023-02-04T18:21:26;9.63;;;3.65;;
52534;SDS011;38443;53.164;5.802;2023-02-04T18:23:59;10.43;;;3.50;;
52534;SDS011;38443;53.164;5.802;2023-02-04T18:26:38;9.35;;;3.47;;
52534;SDS011;38443;53.164;5.802;2023-02-04T18:29:25;8.32;;;3.47;;
52534;SDS011;38443;53.164;5.802;2023-02-04T18:32:08;6.97;;;3.55;;
52534;SDS011;38443;53.164;5.802;2023-02-04T18:34:37;8.70;;;3.58;;
52534;SDS011;38443;53.164;5.802;2023-02-04T18:39:48;8.07;;;3.90;;
52534;SDS011;38443;53.164;5.802;2023-02-04T18:44:43;7.10;;;3.22;;
52534;SDS011;38443;53.164;5.802;2023-02-04T18:49:57;7.97;;;3.88;;
52534;SDS011;38443;53.164;5.802;2023-02-04T18:52:24;7.35;;;3.35;;
52534;SDS011;38443;53.164;5.802;2023-02-04T18:54:55;8.77;;;3.53;;
52534;SDS011;38443;53.164;5.802;2023-02-04T18:57:32;9.38;;;3.35;;
52534;SDS011;38443;53.164;5.802;2023-02-04T19:02:40;7.72;;;3.53;;
52534;SDS011;38443;53.164;5.802;2023-02-04T19:10:25;8.88;;;3.72;;
52534;SDS011;38443;53.164;5.802;2023-02-04T19:12:52;10.90;;;3.60;;
52534;SDS011;38443;53.164;5.802;2023-02-04T19:15:29;10.00;;;3.45;;
52534;SDS011;38443;53.164;5.802;2023-02-04T19:18:01;10.40;;;3.70;;
52534;SDS011;38443;53.164;5.802;2023-02-04T19:23:14;9.38;;;3.47;;
52534;SDS011;38443;53.164;5.802;2023-02-04T19:25:44;13.10;;;3.97;;
52534;SDS011;38443;53.164;5.802;2023-02-04T19:28:27;8.48;;;3.22;;
52534;SDS011;38443;53.164;5.802;2023-02-04T19:31:03;10.05;;;3.97;;
52534;SDS011;38443;53.164;5.802;2023-02-04T19:33:32;7.43;;;4.20;;
52534;SDS011;38443;53.164;5.802;2023-02-04T19:37:11;7.50;;;3.83;;
52534;SDS011;38443;53.164;5.802;2023-02-04T19:46:38;6.53;;;3.47;;
52534;SDS011;38443;53.164;5.802;2023-02-04T19:49:11;9.55;;;4.65;;
52534;SDS011;38443;53.164;5.802;2023-02-04T19:51:47;7.05;;;4.10;;
52534;SDS011;38443;53.164;5.802;2023-02-04T19:54:17;8.48;;;3.85;;
52534;SDS011;38443;53.164;5.802;2023-02-04T19:56:47;7.80;;;4.18;;
52534;SDS011;38443;53.164;5.802;2023-02-04T20:02:21;8.73;;;4.22;;
52534;SDS011;38443;53.164;5.802;2023-02-04T20:04:59;7.63;;;4.40;;
52534;SDS011;38443;53.164;5.802;2023-02-04T20:10:00;8.48;;;3.75;;
52534;SDS011;38443;53.164;5.802;2023-02-04T20:12:40;9.15;;;3.92;;
52534;SDS011;38443;53.164;5.802;2023-02-04T20:17:40;9.88;;;4.88;;
52534;SDS011;38443;53.164;5.802;2023-02-04T20:22:42;9.75;;;5.40;;
52534;SDS011;38443;53.164;5.802;2023-02-04T20:27:49;10.07;;;4.13;;
52534;SDS011;38443;53.164;5.802;2023-02-04T20:30:29;10.48;;;4.60;;
52534;SDS011;38443;53.164;5.802;2023-02-04T20:32:56;9.82;;;4.38;;
52534;SDS011;38443;53.164;5.802;2023-02-04T20:37:56;7.93;;;4.45;;
52534;SDS011;38443;53.164;5.802;2023-02-04T20:40:27;13.32;;;5.03;;
52534;SDS011;38443;53.164;5.802;2023-02-04T20:42:59;6.45;;;3.78;;
52534;SDS011;38443;53.164;5.802;2023-02-04T20:46:09;10.55;;;4.25;;
52534;SDS011;38443;53.164;5.802;2023-02-04T20:55:51;9.38;;;4.65;;
52534;SDS011;38443;53.164;5.802;2023-02-04T20:58:18;9.02;;;4.55;;
52534;SDS011;38443;53.164;5.802;2023-02-04T21:00:50;9.43;;;4.47;;
52534;SDS011;38443;53.164;5.802;2023-02-04T21:03:28;8.82;;;4.57;;
52534;SDS011;38443;53.164;5.802;2023-02-04T21:05:58;9.25;;;4.57;;
52534;SDS011;38443;53.164;5.802;2023-02-04T21:10:57;10.32;;;4.88;;
52534;SDS011;38443;53.164;5.802;2023-02-04T21:15:50;9.57;;;4.95;;
52534;SDS011;38443;53.164;5.802;2023-02-04T21:20:40;9.25;;;5.75;;
52534;SDS011;38443;53.164;5.802;2023-02-04T21:25:32;11.02;;;5.50;;
52534;SDS011;38443;53.164;5.802;2023-02-04T21:30:23;11.57;;;5.97;;
52534;SDS011;38443;53.164;5.802;2023-02-04T21:32:53;10.23;;;5.65;;
52534;SDS011;38443;53.164;5.802;2023-02-04T21:35:19;10.13;;;5.78;;
52534;SDS011;38443;53.164;5.802;2023-02-04T21:37:51;13.20;;;6.35;;
52534;SDS011;38443;53.164;5.802;2023-02-04T21:40:18;10.50;;;6.13;;
52534;SDS011;38443;53.164;5.802;2023-02-04T21:42:48;13.23;;;5.85;;
52534;SDS011;38443;53.164;5.802;2023-02-04T21:45:14;9.38;;;5.70;;
52534;SDS011;38443;53.164;5.802;2023-02-04T21:47:44;12.13;;;6.97;;
52534;SDS011;38443;53.164;5.802;2023-02-04T21:50:10;13.98;;;6.07;;
52534;SDS011;38443;53.164;5.802;2023-02-04T21:52:38;13.07;;;6.15;;
52534;SDS011;38443;53.164;5.802;2023-02-04T21:55:04;18.55;;;7.22;;
52534;SDS011;38443;53.164;5.802;2023-02-04T21:59:56;11.98;;;7.10;;
52534;SDS011;38443;53.164;5.802;2023-02-04T22:04:48;13.35;;;7.78;;
52534;SDS011;38443;53.164;5.802;2023-02-04T22:09:39;15.27;;;8.70;;
52534;SDS011;38443;53.164;5.802;2023-02-04T22:14:30;18.50;;;10.77;;
52534;SDS011;38443;53.164;5.802;2023-02-04T22:17:14;18.38;;;9.98;;
52534;SDS011;38443;53.164;5.802;2023-02-04T22:22:04;13.15;;;7.97;;
52534;SDS011;38443;53.164;5.802;2023-02-04T22:26:55;18.70;;;9.38;;
52534;SDS011;38443;53.164;5.802;2023-02-04T22:31:49;21.13;;;8.63;;
52534;SDS011;38443;53.164;5.802;2023-02-04T22:36:40;23.83;;;10.35;;
52534;SDS011;38443;53.164;5.802;2023-02-04T22:41:31;19.83;;;8.85;;
52534;SDS011;38443;53.164;5.802;2023-02-04T22:46:22;21.63;;;9.80;;
52534;SDS011;38443;53.164;5.802;2023-02-04T22:51:12;20.63;;;9.60;;
52534;SDS011;38443;53.164;5.802;2023-02-04T22:56:03;25.35;;;12.48;;
52534;SDS011;38443;53.164;5.802;2023-02-04T23:00:55;23.65;;;9.68;;
52534;SDS011;38443;53.164;5.802;2023-02-04T23:05:46;28.02;;;8.45;;
52534;SDS011;38443;53.164;5.802;2023-02-04T23:10:37;25.65;;;8.48;;
52534;SDS011;38443;53.164;5.802;2023-02-04T23:15:28;14.45;;;8.07;;
52534;SDS011;38443;53.164;5.802;2023-02-04T23:20:18;23.03;;;8.07;;
52534;SDS011;38443;53.164;5.802;2023-02-04T23:25:09;23.73;;;8.63;;
52534;SDS011;38443;53.164;5.802;2023-02-04T23:29:59;18.42;;;9.02;;
52534;SDS011;38443;53.164;5.802;2023-02-04T23:34:51;20.17;;;9.50;;
52534;SDS011;38443;53.164;5.802;2023-02-04T23:39:42;22.30;;;10.80;;
52534;SDS011;38443;53.164;5.802;2023-02-04T23:44:33;22.13;;;9.52;;
52534;SDS011;38443;53.164;5.802;2023-02-04T23:49:23;24.15;;;9.52;;
52534;SDS011;38443;53.164;5.802;2023-02-04T23:54:14;23.95;;;8.50;;
52534;SDS011;38443;53.164;5.802;2023-02-04T23:59:05;23.52;;;10.50;;
